sensor_id;sensor_type;location;lat;lon;timestamp;temperature;humidity
75380;HTU21D;64279;44.714;37.756;2022-11-22T00:00:58;15.96;84.48
75380;HTU21D;64279;44.714;37.756;2022-11-22T00:02:00;15.95;84.45
75380;HTU21D;64279;44.714;37.756;2022-11-22T00:03:03;15.96;84.47
75380;HTU21D;64279;44.714;37.756;2022-11-22T00:04:06;15.95;84.45
75380;HTU21D;64279;44.714;37.756;2022-11-22T00:05:09;15.96;84.39
75380;HTU21D;64279;44.714;37.756;2022-11-22T00:06:12;15.96;84.39
75380;HTU21D;64279;44.714;37.756;2022-11-22T00:07:15;15.96;84.39
75380;HTU21D;64279;44.714;37.756;2022-11-22T00:08:18;15.96;84.39
75380;HTU21D;64279;44.714;37.756;2022-11-22T00:09:20;15.97;84.34
75380;HTU21D;64279;44.714;37.756;2022-11-22T00:10:23;15.96;84.42
75380;HTU21D;64279;44.714;37.756;2022-11-22T00:11:25;15.97;84.36
75380;HTU21D;64279;44.714;37.756;2022-11-22T00:12:28;15.96;84.32
75380;HTU21D;64279;44.714;37.756;2022-11-22T00:13:31;15.97;84.32
75380;HTU21D;64279;44.714;37.756;2022-11-22T00:14:33;15.97;84.28
75380;HTU21D;64279;44.714;37.756;2022-11-22T00:15:36;15.96;84.36
75380;HTU21D;64279;44.714;37.756;2022-11-22T00:16:39;15.97;84.33
75380;HTU21D;64279;44.714;37.756;2022-11-22T00:17:41;15.97;84.30
75380;HTU21D;64279;44.714;37.756;2022-11-22T00:18:44;15.98;84.35
75380;HTU21D;64279;44.714;37.756;2022-11-22T00:19:47;15.97;84.30
75380;HTU21D;64279;44.714;37.756;2022-11-22T00:20:49;15.97;84.31
75380;HTU21D;64279;44.714;37.756;2022-11-22T00:21:52;15.97;84.35
75380;HTU21D;64279;44.714;37.756;2022-11-22T00:22:55;15.97;84.31
75380;HTU21D;64279;44.714;37.756;2022-11-22T00:23:59;15.97;84.27
75380;HTU21D;64279;44.714;37.756;2022-11-22T00:25:02;15.98;84.34
75380;HTU21D;64279;44.714;37.756;2022-11-22T00:26:05;15.97;84.30
75380;HTU21D;64279;44.714;37.756;2022-11-22T00:27:13;15.98;84.28
75380;HTU21D;64279;44.714;37.756;2022-11-22T00:28:16;15.98;84.23
75380;HTU21D;64279;44.714;37.756;2022-11-22T00:29:18;15.97;84.23
75380;HTU21D;64279;44.714;37.756;2022-11-22T00:30:21;15.98;84.20
75380;HTU21D;64279;44.714;37.756;2022-11-22T00:31:24;15.98;84.25
75380;HTU21D;64279;44.714;37.756;2022-11-22T00:32:26;15.98;84.23
75380;HTU21D;64279;44.714;37.756;2022-11-22T00:33:29;15.98;84.23
75380;HTU21D;64279;44.714;37.756;2022-11-22T00:34:32;15.98;84.26
75380;HTU21D;64279;44.714;37.756;2022-11-22T00:35:35;15.98;84.20
75380;HTU21D;64279;44.714;37.756;2022-11-22T00:36:37;15.98;84.24
75380;HTU21D;64279;44.714;37.756;2022-11-22T00:37:40;15.99;84.21
75380;HTU21D;64279;44.714;37.756;2022-11-22T00:38:43;15.99;84.17
75380;HTU21D;64279;44.714;37.756;2022-11-22T00:39:45;15.98;84.16
75380;HTU21D;64279;44.714;37.756;2022-11-22T00:40:48;15.99;84.13
75380;HTU21D;64279;44.714;37.756;2022-11-22T00:41:51;16.00;84.18
75380;HTU21D;64279;44.714;37.756;2022-11-22T00:42:53;16.00;84.17
75380;HTU21D;64279;44.714;37.756;2022-11-22T00:43:56;16.00;84.13
75380;HTU21D;64279;44.714;37.756;2022-11-22T00:44:59;16.01;84.14
75380;HTU21D;64279;44.714;37.756;2022-11-22T00:46:02;16.00;84.12
75380;HTU21D;64279;44.714;37.756;2022-11-22T00:47:04;16.01;84.16
75380;HTU21D;64279;44.714;37.756;2022-11-22T00:48:08;16.00;84.16
75380;HTU21D;64279;44.714;37.756;2022-11-22T00:49:11;16.01;84.15
75380;HTU21D;64279;44.714;37.756;2022-11-22T00:50:14;16.01;84.11
75380;HTU21D;64279;44.714;37.756;2022-11-22T00:51:16;16.02;84.08
75380;HTU21D;64279;44.714;37.756;2022-11-22T00:52:19;16.01;84.16
75380;HTU21D;64279;44.714;37.756;2022-11-22T00:53:22;16.03;84.15
75380;HTU21D;64279;44.714;37.756;2022-11-22T00:54:25;16.02;84.05
75380;HTU21D;64279;44.714;37.756;2022-11-22T00:55:27;16.01;84.10
75380;HTU21D;64279;44.714;37.756;2022-11-22T00:56:30;16.02;84.15
75380;HTU21D;64279;44.714;37.756;2022-11-22T00:57:33;16.02;84.13
75380;HTU21D;64279;44.714;37.756;2022-11-22T00:58:36;16.03;84.07
75380;HTU21D;64279;44.714;37.756;2022-11-22T00:59:38;16.03;84.12
75380;HTU21D;64279;44.714;37.756;2022-11-22T01:00:41;16.04;84.12
75380;HTU21D;64279;44.714;37.756;2022-11-22T01:01:44;16.04;84.23
75380;HTU21D;64279;44.714;37.756;2022-11-22T01:02:46;16.05;84.06
75380;HTU21D;64279;44.714;37.756;2022-11-22T01:03:49;16.06;83.96
75380;HTU21D;64279;44.714;37.756;2022-11-22T01:04:52;16.07;83.98
75380;HTU21D;64279;44.714;37.756;2022-11-22T01:05:54;16.08;84.01
75380;HTU21D;64279;44.714;37.756;2022-11-22T01:06:57;16.10;83.87
75380;HTU21D;64279;44.714;37.756;2022-11-22T01:08:00;16.10;83.98
75380;HTU21D;64279;44.714;37.756;2022-11-22T01:09:03;16.11;83.87
75380;HTU21D;64279;44.714;37.756;2022-11-22T01:10:06;16.10;83.96
75380;HTU21D;64279;44.714;37.756;2022-11-22T01:11:09;16.11;83.93
75380;HTU21D;64279;44.714;37.756;2022-11-22T01:12:12;16.11;83.78
75380;HTU21D;64279;44.714;37.756;2022-11-22T01:13:15;16.12;83.90
75380;HTU21D;64279;44.714;37.756;2022-11-22T01:14:18;16.13;83.84
75380;HTU21D;64279;44.714;37.756;2022-11-22T01:15:21;16.13;83.84
75380;HTU21D;64279;44.714;37.756;2022-11-22T01:16:24;16.14;83.87
75380;HTU21D;64279;44.714;37.756;2022-11-22T01:17:26;16.15;83.89
75380;HTU21D;64279;44.714;37.756;2022-11-22T01:18:29;16.14;83.77
75380;HTU21D;64279;44.714;37.756;2022-11-22T01:19:32;16.15;83.85
75380;HTU21D;64279;44.714;37.756;2022-11-22T01:20:35;16.15;83.87
75380;HTU21D;64279;44.714;37.756;2022-11-22T01:21:37;16.15;83.78
75380;HTU21D;64279;44.714;37.756;2022-11-22T01:22:40;16.16;83.76
75380;HTU21D;64279;44.714;37.756;2022-11-22T01:23:43;16.16;83.72
75380;HTU21D;64279;44.714;37.756;2022-11-22T01:24:46;16.16;83.81
75380;HTU21D;64279;44.714;37.756;2022-11-22T01:25:49;16.17;83.72
75380;HTU21D;64279;44.714;37.756;2022-11-22T01:26:51;16.17;83.63
75380;HTU21D;64279;44.714;37.756;2022-11-22T01:27:54;16.16;83.68
75380;HTU21D;64279;44.714;37.756;2022-11-22T01:28:57;16.18;83.74
75380;HTU21D;64279;44.714;37.756;2022-11-22T01:29:59;16.19;83.71
75380;HTU21D;64279;44.714;37.756;2022-11-22T01:31:04;16.18;83.66
75380;HTU21D;64279;44.714;37.756;2022-11-22T01:32:07;16.19;83.67
75380;HTU21D;64279;44.714;37.756;2022-11-22T01:33:10;16.19;83.75
75380;HTU21D;64279;44.714;37.756;2022-11-22T01:34:13;16.18;83.65
75380;HTU21D;64279;44.714;37.756;2022-11-22T01:35:16;16.18;83.78
75380;HTU21D;64279;44.714;37.756;2022-11-22T01:36:18;16.18;83.77
75380;HTU21D;64279;44.714;37.756;2022-11-22T01:37:21;16.17;83.66
75380;HTU21D;64279;44.714;37.756;2022-11-22T01:38:24;16.17;83.63
75380;HTU21D;64279;44.714;37.756;2022-11-22T01:39:27;16.18;83.69
75380;HTU21D;64279;44.714;37.756;2022-11-22T01:40:30;16.17;83.75
75380;HTU21D;64279;44.714;37.756;2022-11-22T01:41:32;16.17;83.69
75380;HTU21D;64279;44.714;37.756;2022-11-22T01:42:56;16.18;83.71
75380;HTU21D;64279;44.714;37.756;2022-11-22T01:44:19;16.17;83.82
75380;HTU21D;64279;44.714;37.756;2022-11-22T01:46:36;16.17;83.74
75380;HTU21D;64279;44.714;37.756;2022-11-22T01:47:39;16.18;83.76
75380;HTU21D;64279;44.714;37.756;2022-11-22T01:49:55;16.17;83.74
75380;HTU21D;64279;44.714;37.756;2022-11-22T01:51:04;16.16;83.72
75380;HTU21D;64279;44.714;37.756;2022-11-22T01:52:14;16.17;83.81
75380;HTU21D;64279;44.714;37.756;2022-11-22T01:53:23;16.17;83.75
75380;HTU21D;64279;44.714;37.756;2022-11-22T01:54:30;16.16;83.83
75380;HTU21D;64279;44.714;37.756;2022-11-22T01:55:34;16.17;83.81
75380;HTU21D;64279;44.714;37.756;2022-11-22T01:56:39;16.15;83.79
75380;HTU21D;64279;44.714;37.756;2022-11-22T01:57:45;16.16;83.81
75380;HTU21D;64279;44.714;37.756;2022-11-22T01:58:53;16.16;83.74
75380;HTU21D;64279;44.714;37.756;2022-11-22T02:00:05;16.17;83.74
75380;HTU21D;64279;44.714;37.756;2022-11-22T02:01:15;16.17;83.80
75380;HTU21D;64279;44.714;37.756;2022-11-22T02:02:18;16.17;83.84
75380;HTU21D;64279;44.714;37.756;2022-11-22T02:03:21;16.17;83.84
75380;HTU21D;64279;44.714;37.756;2022-11-22T02:04:25;16.15;83.77
75380;HTU21D;64279;44.714;37.756;2022-11-22T02:05:31;16.16;83.80
75380;HTU21D;64279;44.714;37.756;2022-11-22T02:06:52;16.16;83.89
75380;HTU21D;64279;44.714;37.756;2022-11-22T02:09:21;16.15;83.84
75380;HTU21D;64279;44.714;37.756;2022-11-22T02:10:27;16.15;83.81
75380;HTU21D;64279;44.714;37.756;2022-11-22T02:11:30;16.15;83.83
75380;HTU21D;64279;44.714;37.756;2022-11-22T02:12:35;16.14;83.89
75380;HTU21D;64279;44.714;37.756;2022-11-22T02:13:41;16.14;83.81
75380;HTU21D;64279;44.714;37.756;2022-11-22T02:14:45;16.14;83.83
75380;HTU21D;64279;44.714;37.756;2022-11-22T02:15:51;16.13;83.84
75380;HTU21D;64279;44.714;37.756;2022-11-22T02:16:56;16.13;83.87
75380;HTU21D;64279;44.714;37.756;2022-11-22T02:17:59;16.13;83.89
75380;HTU21D;64279;44.714;37.756;2022-11-22T02:19:01;16.12;83.96
75380;HTU21D;64279;44.714;37.756;2022-11-22T02:20:06;16.12;83.91
75380;HTU21D;64279;44.714;37.756;2022-11-22T02:21:09;16.11;83.89
75380;HTU21D;64279;44.714;37.756;2022-11-22T02:22:38;16.12;83.90
75380;HTU21D;64279;44.714;37.756;2022-11-22T02:24:30;16.12;83.90
75380;HTU21D;64279;44.714;37.756;2022-11-22T02:26:42;16.11;83.95
75380;HTU21D;64279;44.714;37.756;2022-11-22T02:27:45;16.10;83.99
75380;HTU21D;64279;44.714;37.756;2022-11-22T02:28:48;16.10;84.07
75380;HTU21D;64279;44.714;37.756;2022-11-22T02:29:52;16.10;83.99
75380;HTU21D;64279;44.714;37.756;2022-11-22T02:30:54;16.10;83.95
75380;HTU21D;64279;44.714;37.756;2022-11-22T02:31:57;16.10;83.98
75380;HTU21D;64279;44.714;37.756;2022-11-22T02:32:59;16.08;84.01
75380;HTU21D;64279;44.714;37.756;2022-11-22T02:34:02;16.10;83.94
75380;HTU21D;64279;44.714;37.756;2022-11-22T02:35:23;16.10;83.94
75380;HTU21D;64279;44.714;37.756;2022-11-22T02:36:26;16.11;83.93
75380;HTU21D;64279;44.714;37.756;2022-11-22T02:37:31;16.11;83.97
75380;HTU21D;64279;44.714;37.756;2022-11-22T02:38:34;16.10;84.01
75380;HTU21D;64279;44.714;37.756;2022-11-22T02:39:37;16.10;83.93
75380;HTU21D;64279;44.714;37.756;2022-11-22T02:40:55;16.12;83.94
75380;HTU21D;64279;44.714;37.756;2022-11-22T02:41:58;16.10;84.00
75380;HTU21D;64279;44.714;37.756;2022-11-22T02:43:04;16.08;83.95
75380;HTU21D;64279;44.714;37.756;2022-11-22T02:44:08;16.08;84.03
75380;HTU21D;64279;44.714;37.756;2022-11-22T02:45:11;16.08;84.04
75380;HTU21D;64279;44.714;37.756;2022-11-22T02:46:15;16.08;84.02
75380;HTU21D;64279;44.714;37.756;2022-11-22T02:47:22;16.08;83.97
75380;HTU21D;64279;44.714;37.756;2022-11-22T02:48:24;16.07;84.00
75380;HTU21D;64279;44.714;37.756;2022-11-22T02:49:29;16.07;84.00
75380;HTU21D;64279;44.714;37.756;2022-11-22T02:50:33;16.10;84.03
75380;HTU21D;64279;44.714;37.756;2022-11-22T02:51:36;16.07;84.00
75380;HTU21D;64279;44.714;37.756;2022-11-22T02:52:38;16.07;84.08
75380;HTU21D;64279;44.714;37.756;2022-11-22T02:53:45;16.06;84.06
75380;HTU21D;64279;44.714;37.756;2022-11-22T02:54:48;16.06;84.06
75380;HTU21D;64279;44.714;37.756;2022-11-22T02:55:51;16.06;84.07
75380;HTU21D;64279;44.714;37.756;2022-11-22T02:56:54;16.06;84.16
75380;HTU21D;64279;44.714;37.756;2022-11-22T02:57:57;16.06;84.07
75380;HTU21D;64279;44.714;37.756;2022-11-22T02:58:59;16.05;84.07
75380;HTU21D;64279;44.714;37.756;2022-11-22T03:00:02;16.05;84.07
75380;HTU21D;64279;44.714;37.756;2022-11-22T03:01:05;16.05;84.07
75380;HTU21D;64279;44.714;37.756;2022-11-22T03:02:08;16.04;84.10
75380;HTU21D;64279;44.714;37.756;2022-11-22T03:03:10;16.06;84.09
75380;HTU21D;64279;44.714;37.756;2022-11-22T03:04:13;16.05;84.05
75380;HTU21D;64279;44.714;37.756;2022-11-22T03:05:26;16.05;84.10
75380;HTU21D;64279;44.714;37.756;2022-11-22T03:06:29;16.04;84.05
75380;HTU21D;64279;44.714;37.756;2022-11-22T03:07:31;16.04;84.13
75380;HTU21D;64279;44.714;37.756;2022-11-22T03:08:34;16.05;84.11
75380;HTU21D;64279;44.714;37.756;2022-11-22T03:09:37;16.04;84.21
75380;HTU21D;64279;44.714;37.756;2022-11-22T03:10:39;16.05;84.14
75380;HTU21D;64279;44.714;37.756;2022-11-22T03:11:42;16.05;84.13
75380;HTU21D;64279;44.714;37.756;2022-11-22T03:12:45;16.04;84.10
75380;HTU21D;64279;44.714;37.756;2022-11-22T03:13:47;16.04;84.13
75380;HTU21D;64279;44.714;37.756;2022-11-22T03:14:50;16.04;84.07
75380;HTU21D;64279;44.714;37.756;2022-11-22T03:15:53;16.04;84.04
75380;HTU21D;64279;44.714;37.756;2022-11-22T03:16:55;16.05;84.06
75380;HTU21D;64279;44.714;37.756;2022-11-22T03:17:59;16.04;84.10
75380;HTU21D;64279;44.714;37.756;2022-11-22T03:19:02;16.04;84.07
75380;HTU21D;64279;44.714;37.756;2022-11-22T03:20:06;16.05;84.10
75380;HTU21D;64279;44.714;37.756;2022-11-22T03:21:09;16.05;84.06
75380;HTU21D;64279;44.714;37.756;2022-11-22T03:22:12;16.03;84.10
75380;HTU21D;64279;44.714;37.756;2022-11-22T03:23:15;16.04;84.11
75380;HTU21D;64279;44.714;37.756;2022-11-22T03:24:18;16.05;84.07
75380;HTU21D;64279;44.714;37.756;2022-11-22T03:25:21;16.05;84.11
75380;HTU21D;64279;44.714;37.756;2022-11-22T03:26:24;16.04;84.15
75380;HTU21D;64279;44.714;37.756;2022-11-22T03:27:27;16.03;84.11
75380;HTU21D;64279;44.714;37.756;2022-11-22T03:28:29;16.05;84.08
75380;HTU21D;64279;44.714;37.756;2022-11-22T03:29:32;16.04;84.16
75380;HTU21D;64279;44.714;37.756;2022-11-22T03:30:38;16.02;84.15
75380;HTU21D;64279;44.714;37.756;2022-11-22T03:31:41;16.04;84.16
75380;HTU21D;64279;44.714;37.756;2022-11-22T03:32:44;16.04;84.11
75380;HTU21D;64279;44.714;37.756;2022-11-22T03:33:47;16.04;84.18
75380;HTU21D;64279;44.714;37.756;2022-11-22T03:34:49;16.03;84.22
75380;HTU21D;64279;44.714;37.756;2022-11-22T03:35:56;16.03;84.23
75380;HTU21D;64279;44.714;37.756;2022-11-22T03:36:59;16.04;84.19
75380;HTU21D;64279;44.714;37.756;2022-11-22T03:38:02;16.03;84.21
75380;HTU21D;64279;44.714;37.756;2022-11-22T03:39:06;16.04;84.17
75380;HTU21D;64279;44.714;37.756;2022-11-22T03:40:09;16.02;84.22
75380;HTU21D;64279;44.714;37.756;2022-11-22T03:41:11;16.03;84.22
75380;HTU21D;64279;44.714;37.756;2022-11-22T03:42:14;16.04;84.16
75380;HTU21D;64279;44.714;37.756;2022-11-22T03:43:23;16.02;84.10
75380;HTU21D;64279;44.714;37.756;2022-11-22T03:44:25;16.03;84.16
75380;HTU21D;64279;44.714;37.756;2022-11-22T03:45:28;16.03;84.18
75380;HTU21D;64279;44.714;37.756;2022-11-22T03:46:31;16.04;84.13
75380;HTU21D;64279;44.714;37.756;2022-11-22T03:47:34;16.04;84.22
75380;HTU21D;64279;44.714;37.756;2022-11-22T03:48:36;16.04;84.19
75380;HTU21D;64279;44.714;37.756;2022-11-22T03:49:39;16.04;84.30
75380;HTU21D;64279;44.714;37.756;2022-11-22T03:50:42;16.03;84.20
75380;HTU21D;64279;44.714;37.756;2022-11-22T03:51:45;16.03;84.23
75380;HTU21D;64279;44.714;37.756;2022-11-22T03:53:20;16.04;84.14
75380;HTU21D;64279;44.714;37.756;2022-11-22T03:54:22;16.04;84.13
75380;HTU21D;64279;44.714;37.756;2022-11-22T03:55:25;16.05;84.15
75380;HTU21D;64279;44.714;37.756;2022-11-22T03:56:27;16.06;84.19
75380;HTU21D;64279;44.714;37.756;2022-11-22T03:57:30;16.05;84.14
75380;HTU21D;64279;44.714;37.756;2022-11-22T03:58:33;16.05;84.23
75380;HTU21D;64279;44.714;37.756;2022-11-22T03:59:36;16.06;84.15
75380;HTU21D;64279;44.714;37.756;2022-11-22T04:00:38;16.06;84.17
75380;HTU21D;64279;44.714;37.756;2022-11-22T04:01:41;16.07;84.21
75380;HTU21D;64279;44.714;37.756;2022-11-22T04:02:44;16.07;84.18
75380;HTU21D;64279;44.714;37.756;2022-11-22T04:03:47;16.06;84.11
75380;HTU21D;64279;44.714;37.756;2022-11-22T04:04:50;16.07;84.13
75380;HTU21D;64279;44.714;37.756;2022-11-22T04:05:53;16.08;84.13
75380;HTU21D;64279;44.714;37.756;2022-11-22T04:06:55;16.07;84.20
75380;HTU21D;64279;44.714;37.756;2022-11-22T04:07:58;16.08;84.12
75380;HTU21D;64279;44.714;37.756;2022-11-22T04:09:01;16.08;84.20
75380;HTU21D;64279;44.714;37.756;2022-11-22T04:10:04;16.10;84.13
75380;HTU21D;64279;44.714;37.756;2022-11-22T04:11:09;16.08;84.05
75380;HTU21D;64279;44.714;37.756;2022-11-22T04:12:12;16.11;84.05
75380;HTU21D;64279;44.714;37.756;2022-11-22T04:13:14;16.11;84.00
75380;HTU21D;64279;44.714;37.756;2022-11-22T04:14:17;16.11;84.00
75380;HTU21D;64279;44.714;37.756;2022-11-22T04:15:39;16.11;84.08
75380;HTU21D;64279;44.714;37.756;2022-11-22T04:16:45;16.11;84.03
75380;HTU21D;64279;44.714;37.756;2022-11-22T04:17:47;16.11;84.07
75380;HTU21D;64279;44.714;37.756;2022-11-22T04:18:50;16.11;84.10
75380;HTU21D;64279;44.714;37.756;2022-11-22T04:19:53;16.10;84.05
75380;HTU21D;64279;44.714;37.756;2022-11-22T04:21:14;16.11;84.00
75380;HTU21D;64279;44.714;37.756;2022-11-22T04:22:35;16.11;83.97
75380;HTU21D;64279;44.714;37.756;2022-11-22T04:23:38;16.11;83.98
75380;HTU21D;64279;44.714;37.756;2022-11-22T04:24:40;16.12;84.05
75380;HTU21D;64279;44.714;37.756;2022-11-22T04:26:01;16.13;83.97
75380;HTU21D;64279;44.714;37.756;2022-11-22T04:27:04;16.11;83.96
75380;HTU21D;64279;44.714;37.756;2022-11-22T04:28:08;16.10;84.00
75380;HTU21D;64279;44.714;37.756;2022-11-22T04:29:11;16.11;84.02
75380;HTU21D;64279;44.714;37.756;2022-11-22T04:30:14;16.11;84.03
75380;HTU21D;64279;44.714;37.756;2022-11-22T04:31:21;16.12;84.03
75380;HTU21D;64279;44.714;37.756;2022-11-22T04:32:42;16.11;84.11
75380;HTU21D;64279;44.714;37.756;2022-11-22T04:33:48;16.12;84.01
75380;HTU21D;64279;44.714;37.756;2022-11-22T04:34:51;16.12;84.00
75380;HTU21D;64279;44.714;37.756;2022-11-22T04:35:54;16.11;84.00
75380;HTU21D;64279;44.714;37.756;2022-11-22T04:36:56;16.11;84.08
75380;HTU21D;64279;44.714;37.756;2022-11-22T04:37:59;16.11;84.03
75380;HTU21D;64279;44.714;37.756;2022-11-22T04:39:02;16.11;84.02
75380;HTU21D;64279;44.714;37.756;2022-11-22T04:40:05;16.10;84.05
75380;HTU21D;64279;44.714;37.756;2022-11-22T04:41:08;16.10;84.19
75380;HTU21D;64279;44.714;37.756;2022-11-22T04:42:11;16.10;84.24
75380;HTU21D;64279;44.714;37.756;2022-11-22T04:43:32;16.10;84.22
75380;HTU21D;64279;44.714;37.756;2022-11-22T04:44:53;16.10;84.15
75380;HTU21D;64279;44.714;37.756;2022-11-22T04:45:56;16.10;84.19
75380;HTU21D;64279;44.714;37.756;2022-11-22T04:46:58;16.10;84.14
75380;HTU21D;64279;44.714;37.756;2022-11-22T04:48:01;16.08;84.17
75380;HTU21D;64279;44.714;37.756;2022-11-22T04:49:04;16.10;84.07
75380;HTU21D;64279;44.714;37.756;2022-11-22T04:50:07;16.11;84.17
75380;HTU21D;64279;44.714;37.756;2022-11-22T04:51:30;16.12;84.07
75380;HTU21D;64279;44.714;37.756;2022-11-22T04:52:55;16.13;84.03
75380;HTU21D;64279;44.714;37.756;2022-11-22T04:53:59;16.13;84.00
75380;HTU21D;64279;44.714;37.756;2022-11-22T04:55:01;16.14;84.01
75380;HTU21D;64279;44.714;37.756;2022-11-22T04:56:04;16.14;83.96
75380;HTU21D;64279;44.714;37.756;2022-11-22T04:57:07;16.14;84.06
75380;HTU21D;64279;44.714;37.756;2022-11-22T04:58:10;16.15;84.00
75380;HTU21D;64279;44.714;37.756;2022-11-22T04:59:13;16.15;84.10
75380;HTU21D;64279;44.714;37.756;2022-11-22T05:00:16;16.16;83.91
75380;HTU21D;64279;44.714;37.756;2022-11-22T05:01:19;16.17;83.85
75380;HTU21D;64279;44.714;37.756;2022-11-22T05:02:21;16.16;83.95
75380;HTU21D;64279;44.714;37.756;2022-11-22T05:03:24;16.18;84.06
75380;HTU21D;64279;44.714;37.756;2022-11-22T05:04:27;16.18;83.89
75380;HTU21D;64279;44.714;37.756;2022-11-22T05:05:30;16.18;83.80
75380;HTU21D;64279;44.714;37.756;2022-11-22T05:06:36;16.20;83.84
75380;HTU21D;64279;44.714;37.756;2022-11-22T05:07:39;16.20;83.81
75380;HTU21D;64279;44.714;37.756;2022-11-22T05:08:41;16.19;83.85
75380;HTU21D;64279;44.714;37.756;2022-11-22T05:09:44;16.21;83.72
75380;HTU21D;64279;44.714;37.756;2022-11-22T05:10:47;16.21;83.85
75380;HTU21D;64279;44.714;37.756;2022-11-22T05:12:00;16.21;83.78
75380;HTU21D;64279;44.714;37.756;2022-11-22T05:13:03;16.21;83.75
75380;HTU21D;64279;44.714;37.756;2022-11-22T05:14:05;16.24;83.77
75380;HTU21D;64279;44.714;37.756;2022-11-22T05:15:09;16.24;83.77
75380;HTU21D;64279;44.714;37.756;2022-11-22T05:16:14;16.25;83.74
75380;HTU21D;64279;44.714;37.756;2022-11-22T05:17:17;16.25;83.74
75380;HTU21D;64279;44.714;37.756;2022-11-22T05:18:21;16.25;83.76
75380;HTU21D;64279;44.714;37.756;2022-11-22T05:19:24;16.26;83.67
75380;HTU21D;64279;44.714;37.756;2022-11-22T05:20:27;16.26;83.68
75380;HTU21D;64279;44.714;37.756;2022-11-22T05:21:33;16.27;83.63
75380;HTU21D;64279;44.714;37.756;2022-11-22T05:22:37;16.28;83.69
75380;HTU21D;64279;44.714;37.756;2022-11-22T05:23:58;16.29;83.55
75380;HTU21D;64279;44.714;37.756;2022-11-22T05:25:01;16.28;83.74
75380;HTU21D;64279;44.714;37.756;2022-11-22T05:26:04;16.29;83.57
75380;HTU21D;64279;44.714;37.756;2022-11-22T05:27:07;16.31;83.46
75380;HTU21D;64279;44.714;37.756;2022-11-22T05:28:10;16.30;83.66
75380;HTU21D;64279;44.714;37.756;2022-11-22T05:29:13;16.31;83.53
75380;HTU21D;64279;44.714;37.756;2022-11-22T05:30:15;16.31;83.55
75380;HTU21D;64279;44.714;37.756;2022-11-22T05:31:20;16.31;83.61
75380;HTU21D;64279;44.714;37.756;2022-11-22T05:32:27;16.31;83.68
75380;HTU21D;64279;44.714;37.756;2022-11-22T05:33:31;16.32;83.56
75380;HTU21D;64279;44.714;37.756;2022-11-22T05:34:33;16.33;83.65
75380;HTU21D;64279;44.714;37.756;2022-11-22T05:35:36;16.32;83.70
75380;HTU21D;64279;44.714;37.756;2022-11-22T05:36:39;16.35;83.69
75380;HTU21D;64279;44.714;37.756;2022-11-22T05:37:41;16.34;83.65
75380;HTU21D;64279;44.714;37.756;2022-11-22T05:38:44;16.35;83.61
75380;HTU21D;64279;44.714;37.756;2022-11-22T05:39:47;16.35;83.59
75380;HTU21D;64279;44.714;37.756;2022-11-22T05:40:49;16.35;83.61
75380;HTU21D;64279;44.714;37.756;2022-11-22T05:41:52;16.35;83.49
75380;HTU21D;64279;44.714;37.756;2022-11-22T05:42:58;16.36;83.47
75380;HTU21D;64279;44.714;37.756;2022-11-22T05:44:00;16.37;83.62
75380;HTU21D;64279;44.714;37.756;2022-11-22T05:45:04;16.36;83.54
75380;HTU21D;64279;44.714;37.756;2022-11-22T05:46:11;16.37;83.56
75380;HTU21D;64279;44.714;37.756;2022-11-22T05:47:14;16.37;83.52
75380;HTU21D;64279;44.714;37.756;2022-11-22T05:48:17;16.39;83.59
75380;HTU21D;64279;44.714;37.756;2022-11-22T05:49:20;16.40;83.46
75380;HTU21D;64279;44.714;37.756;2022-11-22T05:50:22;16.40;83.52
75380;HTU21D;64279;44.714;37.756;2022-11-22T05:51:28;16.41;83.49
75380;HTU21D;64279;44.714;37.756;2022-11-22T05:52:36;16.41;83.49
75380;HTU21D;64279;44.714;37.756;2022-11-22T05:53:39;16.43;83.41
75380;HTU21D;64279;44.714;37.756;2022-11-22T05:54:43;16.44;83.32
75380;HTU21D;64279;44.714;37.756;2022-11-22T05:55:46;16.45;83.36
75380;HTU21D;64279;44.714;37.756;2022-11-22T05:56:48;16.45;83.35
75380;HTU21D;64279;44.714;37.756;2022-11-22T05:57:51;16.47;83.23
75380;HTU21D;64279;44.714;37.756;2022-11-22T05:58:54;16.49;83.33
75380;HTU21D;64279;44.714;37.756;2022-11-22T05:59:56;16.49;83.23
75380;HTU21D;64279;44.714;37.756;2022-11-22T06:01:07;16.48;83.19
75380;HTU21D;64279;44.714;37.756;2022-11-22T06:02:10;16.49;83.23
75380;HTU21D;64279;44.714;37.756;2022-11-22T06:03:13;16.50;83.23
75380;HTU21D;64279;44.714;37.756;2022-11-22T06:04:15;16.49;83.22
75380;HTU21D;64279;44.714;37.756;2022-11-22T06:05:18;16.48;83.26
75380;HTU21D;64279;44.714;37.756;2022-11-22T06:06:21;16.49;83.26
75380;HTU21D;64279;44.714;37.756;2022-11-22T06:07:23;16.49;83.32
75380;HTU21D;64279;44.714;37.756;2022-11-22T06:08:30;16.49;83.16
75380;HTU21D;64279;44.714;37.756;2022-11-22T06:09:33;16.48;83.22
75380;HTU21D;64279;44.714;37.756;2022-11-22T06:10:35;16.48;83.28
75380;HTU21D;64279;44.714;37.756;2022-11-22T06:11:38;16.50;83.33
75380;HTU21D;64279;44.714;37.756;2022-11-22T06:12:41;16.49;83.21
75380;HTU21D;64279;44.714;37.756;2022-11-22T06:13:45;16.51;83.25
75380;HTU21D;64279;44.714;37.756;2022-11-22T06:14:48;16.54;83.27
75380;HTU21D;64279;44.714;37.756;2022-11-22T06:15:51;16.55;83.08
75380;HTU21D;64279;44.714;37.756;2022-11-22T06:16:53;16.58;83.05
75380;HTU21D;64279;44.714;37.756;2022-11-22T06:17:56;16.59;82.87
75380;HTU21D;64279;44.714;37.756;2022-11-22T06:18:59;16.60;82.85
75380;HTU21D;64279;44.714;37.756;2022-11-22T06:20:01;16.63;82.88
75380;HTU21D;64279;44.714;37.756;2022-11-22T06:21:13;16.65;82.77
75380;HTU21D;64279;44.714;37.756;2022-11-22T06:22:16;16.69;82.71
75380;HTU21D;64279;44.714;37.756;2022-11-22T06:23:18;16.72;82.71
75380;HTU21D;64279;44.714;37.756;2022-11-22T06:24:21;16.73;82.61
75380;HTU21D;64279;44.714;37.756;2022-11-22T06:25:24;16.76;82.45
75380;HTU21D;64279;44.714;37.756;2022-11-22T06:26:27;16.79;82.29
75380;HTU21D;64279;44.714;37.756;2022-11-22T06:27:29;16.80;82.26
75380;HTU21D;64279;44.714;37.756;2022-11-22T06:28:33;16.84;82.14
75380;HTU21D;64279;44.714;37.756;2022-11-22T06:29:36;16.86;82.18
75380;HTU21D;64279;44.714;37.756;2022-11-22T06:30:39;16.88;82.04
75380;HTU21D;64279;44.714;37.756;2022-11-22T06:31:41;16.91;81.91
75380;HTU21D;64279;44.714;37.756;2022-11-22T06:32:44;16.94;81.75
75380;HTU21D;64279;44.714;37.756;2022-11-22T06:33:47;16.95;81.88
75380;HTU21D;64279;44.714;37.756;2022-11-22T06:34:50;16.98;81.78
75380;HTU21D;64279;44.714;37.756;2022-11-22T06:35:52;17.00;81.59
75380;HTU21D;64279;44.714;37.756;2022-11-22T06:36:55;17.04;81.44
75380;HTU21D;64279;44.714;37.756;2022-11-22T06:37:58;17.06;81.39
75380;HTU21D;64279;44.714;37.756;2022-11-22T06:39:02;17.10;81.33
75380;HTU21D;64279;44.714;37.756;2022-11-22T06:40:05;17.15;81.23